Time;durP1;ratioP1;P1;durP2;ratioP2;P2;SDS_P1;SDS_P2;PMS_P1;PMS_P2;Temp;Humidity;BMP_temperature;BMP_pressure;BME280_temperature;BME280_humidity;BME280_pressure;Samples;Min_cycle;Max_cycle;Signal;HPM_P1;HPM_P2
2021/08/15 00:01:57;;;;;;;;;;;23.60;1.00;;;;;;5013887;28;19914;-65
2021/08/15 00:04:22;;;;;;;;;;;23.60;1.00;;;;;;5013592;28;19921;-67
2021/08/15 00:06:48;;;;;;;;;;;23.60;1.00;;;;;;5013955;28;19910;-67
2021/08/15 00:09:13;;;;;;;;;;;23.60;1.00;;;;;;5012866;28;20376;-68
2021/08/15 00:11:39;;;;;;;;;;;23.50;1.00;;;;;;5013843;28;19917;-67
2021/08/15 00:14:04;;;;;;;;;;;23.50;1.00;;;;;;5013358;28;19909;-67
2021/08/15 00:16:32;;;;;;;;;;;23.50;1.00;;;;;;5013824;28;19909;-66
2021/08/15 00:19:00;;;;;;;;;;;23.50;1.00;;;;;;5012676;28;20016;-67
2021/08/15 00:21:25;;;;;;;;;;;23.50;1.00;;;;;;5013353;28;19921;-67
2021/08/15 00:23:51;;;;;;;;;;;23.50;1.00;;;;;;5013396;28;19909;-66
2021/08/15 00:26:16;;;;;;;;;;;23.50;1.00;;;;;;5013588;28;20367;-66
2021/08/15 00:28:42;;;;;;;;;;;23.50;1.00;;;;;;5010693;28;19957;-66
2021/08/15 00:31:07;;;;;;;;;;;23.50;1.00;;;;;;5009967;28;20371;-66
2021/08/15 00:33:33;;;;;;;;;;;23.50;1.00;;;;;;5010207;28;19917;-66
2021/08/15 00:35:58;;;;;;;;;;;23.50;1.00;;;;;;5010508;28;19952;-66
2021/08/15 00:38:23;;;;;;;;;;;23.50;1.00;;;;;;5010017;28;20007;-65
2021/08/15 00:40:49;;;;;;;;;;;23.50;1.00;;;;;;5010568;28;19914;-66
2021/08/15 00:43:14;;;;;;;;;;;23.50;1.00;;;;;;5010115;28;20008;-65
2021/08/15 00:45:40;;;;;;;;;;;23.50;1.00;;;;;;5010189;28;20362;-66
2021/08/15 00:48:07;;;;;;;;;;;23.40;1.00;;;;;;5009722;28;19909;-66
2021/08/15 00:50:32;;;;;;;;;;;23.40;1.00;;;;;;5010379;28;19913;-68
2021/08/15 00:52:58;;;;;;;;;;;23.40;1.00;;;;;;5010753;28;19909;-65
2021/08/15 00:55:23;;;;;;;;;;;23.30;1.00;;;;;;5010351;28;20397;-66
2021/08/15 00:57:49;;;;;;;;;;;23.30;1.00;;;;;;5009660;28;19944;-65
2021/08/15 01:00:16;;;;;;;;;;;23.30;1.00;;;;;;5009828;28;20435;-65
2021/08/15 01:02:43;;;;;;;;;;;23.30;6.80;;;;;;5010057;28;20422;-66
2021/08/15 01:05:09;;;;;;;;;;;23.30;45.20;;;;;;5010236;28;19914;-66
2021/08/15 01:07:37;;;;;;;;;;;23.40;92.10;;;;;;5009401;28;20398;-66
2021/08/15 01:10:02;;;;;;;;;;;23.40;98.10;;;;;;5010451;28;20201;-66
2021/08/15 01:12:28;;;;;;;;;;;23.40;99.10;;;;;;5010038;28;19909;-66
2021/08/15 01:14:59;;;;;;;;;;;23.40;79.50;;;;;;5009558;28;19917;-66
2021/08/15 01:17:29;;;;;;;;;;;23.40;99.00;;;;;;5007555;28;19910;-66
2021/08/15 01:19:55;;;;;;;;;;;23.40;99.90;;;;;;5009845;28;19913;-67
2021/08/15 01:22:21;;;;;;;;;;;23.40;62.40;;;;;;5010185;28;20073;-66
2021/08/15 01:24:48;;;;;;;;;;;23.30;94.00;;;;;;5010207;28;20351;-66
2021/08/15 01:27:14;;;;;;;;;;;23.30;99.90;;;;;;5009852;28;19956;-66
2021/08/15 01:29:39;;;;;;;;;;;23.20;99.90;;;;;;5008207;28;20363;-66
2021/08/15 01:32:05;;;;;;;;;;;23.20;99.90;;;;;;5009891;28;19921;-66
2021/08/15 01:34:30;;;;;;;;;;;23.10;99.90;;;;;;5009828;28;19914;-66
2021/08/15 01:36:56;;;;;;;;;;;23.10;99.90;;;;;;5009636;28;19914;-67
2021/08/15 01:39:21;;;;;;;;;;;23.00;99.90;;;;;;5009266;28;19987;-66
2021/08/15 01:41:47;;;;;;;;;;;22.90;1.00;;;;;;5009298;28;19920;-66
2021/08/15 01:44:12;;;;;;;;;;;22.90;1.00;;;;;;5008741;28;20302;-66
2021/08/15 01:46:38;;;;;;;;;;;22.90;1.00;;;;;;5009840;28;19913;-66
2021/08/15 01:49:03;;;;;;;;;;;22.90;1.00;;;;;;5008934;28;19937;-66
2021/08/15 01:51:29;;;;;;;;;;;22.90;1.00;;;;;;5009389;28;19910;-66
2021/08/15 01:53:56;;;;;;;;;;;22.80;91.30;;;;;;5008896;28;20238;-66
2021/08/15 01:56:21;;;;;;;;;;;22.80;99.90;;;;;;5009316;28;19914;-65
2021/08/15 01:58:47;;;;;;;;;;;22.70;99.90;;;;;;5007791;28;19916;-66
2021/08/15 02:01:16;;;;;;;;;;;22.70;99.90;;;;;;5009444;28;20023;-66
2021/08/15 02:03:42;;;;;;;;;;;22.70;99.90;;;;;;5008993;28;20317;-66
2021/08/15 02:06:08;;;;;;;;;;;22.80;99.90;;;;;;5009664;28;19928;-66
2021/08/15 02:08:33;;;;;;;;;;;22.70;99.90;;;;;;5008402;28;20383;-65
2021/08/15 02:10:59;;;;;;;;;;;22.70;99.90;;;;;;5009134;28;19932;-66
2021/08/15 02:13:24;;;;;;;;;;;22.70;99.90;;;;;;5009367;28;19910;-67
2021/08/15 02:15:50;;;;;;;;;;;22.60;99.90;;;;;;5008893;28;19909;-67
2021/08/15 02:18:15;;;;;;;;;;;22.60;1.00;;;;;;5008769;28;19925;-65
2021/08/15 02:20:41;;;;;;;;;;;22.50;1.00;;;;;;5011398;28;19914;-66
2021/08/15 02:23:06;;;;;;;;;;;22.40;1.00;;;;;;5011456;28;20381;-66
2021/08/15 02:25:32;;;;;;;;;;;22.30;99.90;;;;;;5011676;28;19991;-66
2021/08/15 02:27:58;;;;;;;;;;;22.30;1.00;;;;;;5010513;28;19909;-66
2021/08/15 02:30:24;;;;;;;;;;;22.20;1.00;;;;;;5011141;28;19909;-65
2021/08/15 02:32:50;;;;;;;;;;;22.20;1.00;;;;;;5011499;28;19925;-65
2021/08/15 02:35:16;;;;;;;;;;;22.10;16.60;;;;;;5011399;28;19909;-66
2021/08/15 02:37:43;;;;;;;;;;;22.00;99.90;;;;;;5010768;28;19913;-66
2021/08/15 02:40:10;;;;;;;;;;;22.00;99.90;;;;;;5010747;28;19910;-66
2021/08/15 02:42:36;;;;;;;;;;;21.90;99.90;;;;;;5011095;28;20376;-66
2021/08/15 02:45:03;;;;;;;;;;;21.80;1.00;;;;;;5010980;28;19913;-66
2021/08/15 02:47:28;;;;;;;;;;;21.70;99.90;;;;;;5010738;28;20331;-66
2021/08/15 02:49:54;;;;;;;;;;;21.70;1.00;;;;;;5010898;28;19951;-66
2021/08/15 02:52:19;;;;;;;;;;;21.60;1.00;;;;;;5010464;28;19913;-66
2021/08/15 02:54:45;;;;;;;;;;;21.60;1.00;;;;;;5010588;28;20329;-66
2021/08/15 02:57:10;;;;;;;;;;;21.50;99.90;;;;;;5010826;28;19910;-66
2021/08/15 02:59:42;;;;;;;;;;;21.50;99.90;;;;;;5010608;28;19917;-64
2021/08/15 03:02:08;;;;;;;;;;;21.50;1.00;;;;;;5011041;28;19914;-65
2021/08/15 03:04:34;;;;;;;;;;;21.40;1.00;;;;;;5011111;28;19914;-66
2021/08/15 03:06:59;;;;;;;;;;;21.30;1.00;;;;;;5011106;28;19910;-66
2021/08/15 03:09:25;;;;;;;;;;;21.30;1.00;;;;;;5010226;28;19921;-66
2021/08/15 03:11:50;;;;;;;;;;;21.20;99.90;;;;;;5010693;28;19910;-66
2021/08/15 03:14:16;;;;;;;;;;;21.20;99.90;;;;;;5010835;28;19969;-65
2021/08/15 03:16:41;;;;;;;;;;;21.20;99.90;;;;;;5010922;28;19916;-65
2021/08/15 03:19:07;;;;;;;;;;;21.20;99.90;;;;;;5010236;28;20279;-66
2021/08/15 03:21:34;;;;;;;;;;;21.10;99.90;;;;;;5010758;28;19917;-66
2021/08/15 03:24:03;;;;;;;;;;;21.10;1.00;;;;;;5009903;28;19917;-66
2021/08/15 03:26:29;;;;;;;;;;;21.10;1.00;;;;;;5010449;28;19910;-66
2021/08/15 03:28:54;;;;;;;;;;;21.10;1.00;;;;;;5010059;28;20262;-65
2021/08/15 03:31:20;;;;;;;;;;;21.00;1.00;;;;;;5011009;28;19918;-65
2021/08/15 03:33:45;;;;;;;;;;;21.00;1.00;;;;;;5011361;28;19963;-65
2021/08/15 03:36:11;;;;;;;;;;;21.00;99.90;;;;;;5010852;28;19915;-65
2021/08/15 03:38:36;;;;;;;;;;;21.00;1.00;;;;;;5009543;28;20429;-65
2021/08/15 03:41:02;;;;;;;;;;;21.00;99.90;;;;;;5010869;28;20363;-66
2021/08/15 03:43:27;;;;;;;;;;;20.90;1.00;;;;;;5010145;28;19951;-66
2021/08/15 03:45:53;;;;;;;;;;;20.90;1.00;;;;;;5010528;28;19909;-66
2021/08/15 03:48:18;;;;;;;;;;;20.90;1.00;;;;;;5008426;28;20374;-66
2021/08/15 03:50:44;;;;;;;;;;;20.80;1.00;;;;;;5010167;28;19963;-66
2021/08/15 03:53:09;;;;;;;;;;;20.80;1.00;;;;;;5010239;28;20004;-66
2021/08/15 03:55:35;;;;;;;;;;;20.80;1.00;;;;;;5010394;28;20408;-66
2021/08/15 03:58:00;;;;;;;;;;;20.80;1.00;;;;;;5009737;28;19910;-66
2021/08/15 04:00:26;;;;;;;;;;;20.80;1.00;;;;;;5010586;28;19909;-66
2021/08/15 04:02:51;;;;;;;;;;;20.80;1.00;;;;;;5009908;28;19942;-66
2021/08/15 04:05:16;;;;;;;;;;;20.70;1.00;;;;;;5010511;28;19918;-65
2021/08/15 04:07:42;;;;;;;;;;;20.70;1.00;;;;;;5012542;28;19940;-66
2021/08/15 04:10:09;;;;;;;;;;;20.70;1.00;;;;;;5013660;28;20396;-66
2021/08/15 04:12:35;;;;;;;;;;;20.70;1.00;;;;;;5013702;28;19917;-66
2021/08/15 04:15:00;;;;;;;;;;;20.60;1.00;;;;;;5012998;28;19959;-66
2021/08/15 04:17:26;;;;;;;;;;;20.60;1.00;;;;;;5013248;28;20392;-66
2021/08/15 04:19:51;;;;;;;;;;;20.60;1.00;;;;;;5013553;28;19916;-66
2021/08/15 04:22:17;;;;;;;;;;;20.60;1.00;;;;;;5013414;28;20306;-66
2021/08/15 04:24:42;;;;;;;;;;;20.60;1.00;;;;;;5012328;28;19960;-66
2021/08/15 04:27:08;;;;;;;;;;;20.60;1.00;;;;;;5013417;28;19949;-66
2021/08/15 04:29:38;;;;;;;;;;;20.60;1.00;;;;;;5012698;28;19921;-66
2021/08/15 04:32:04;;;;;;;;;;;20.60;1.00;;;;;;5013372;28;19924;-66
2021/08/15 04:34:30;;;;;;;;;;;20.60;1.00;;;;;;5013379;28;19910;-66
2021/08/15 04:36:55;;;;;;;;;;;20.80;99.90;;;;;;5011955;28;19937;-66
2021/08/15 04:39:21;;;;;;;;;;;20.80;99.90;;;;;;5012409;28;19909;-66
2021/08/15 04:41:46;;;;;;;;;;;20.80;99.90;;;;;;5013293;28;19917;-66
2021/08/15 04:44:12;;;;;;;;;;;20.90;99.90;;;;;;5012788;28;19997;-67
2021/08/15 04:46:37;;;;;;;;;;;21.00;99.90;;;;;;5013452;28;20374;-66
2021/08/15 04:49:03;;;;;;;;;;;21.10;99.90;;;;;;5012490;28;19909;-67
2021/08/15 04:51:29;;;;;;;;;;;21.20;20.80;;;;;;5013175;28;19914;-67
2021/08/15 04:53:54;;;;;;;;;;;21.40;1.00;;;;;;5012997;28;19910;-66
2021/08/15 04:56:20;;;;;;;;;;;21.50;1.00;;;;;;5013066;28;19909;-66
2021/08/15 04:58:45;;;;;;;;;;;21.70;20.50;;;;;;5011817;28;19940;-66
2021/08/15 05:01:11;;;;;;;;;;;21.70;1.00;;;;;;5012585;28;19920;-66
2021/08/15 05:03:37;;;;;;;;;;;21.80;99.90;;;;;;5012868;28;20008;-66
2021/08/15 05:06:03;;;;;;;;;;;21.90;1.00;;;;;;5013028;28;19920;-66
2021/08/15 05:08:29;;;;;;;;;;;22.00;1.00;;;;;;5012002;28;19913;-65
2021/08/15 05:10:54;;;;;;;;;;;22.10;99.90;;;;;;5012949;28;19920;-66
2021/08/15 05:13:20;;;;;;;;;;;22.10;1.00;;;;;;5011998;28;19913;-66
2021/08/15 05:15:45;;;;;;;;;;;22.20;1.00;;;;;;5012596;28;19913;-67
2021/08/15 05:18:12;;;;;;;;;;;22.30;99.90;;;;;;5011551;28;20003;-66
2021/08/15 05:20:38;;;;;;;;;;;22.40;99.90;;;;;;5012377;28;19960;-66
2021/08/15 05:23:03;;;;;;;;;;;22.50;1.00;;;;;;5012490;28;20011;-66
2021/08/15 05:25:29;;;;;;;;;;;22.70;1.00;;;;;;5012560;28;20434;-66
2021/08/15 05:27:55;;;;;;;;;;;23.50;99.90;;;;;;5012032;28;19915;-66
2021/08/15 05:30:20;;;;;;;;;;;24.30;99.90;;;;;;5010258;28;19909;-66
2021/08/15 05:32:46;;;;;;;;;;;25.30;1.00;;;;;;5011106;28;19917;-66
2021/08/15 05:35:11;;;;;;;;;;;26.20;1.00;;;;;;5009275;28;20317;-66
2021/08/15 05:37:40;;;;;;;;;;;27.00;99.90;;;;;;5009001;28;20290;-66
2021/08/15 05:40:06;;;;;;;;;;;27.80;99.90;;;;;;5009753;28;19920;-66
2021/08/15 05:42:31;;;;;;;;;;;28.70;99.90;;;;;;5008796;28;19914;-66
2021/08/15 05:44:57;;;;;;;;;;;29.30;99.90;;;;;;5009775;28;20012;-67
2021/08/15 05:47:22;;;;;;;;;;;29.80;99.90;;;;;;5009072;28;19936;-66
2021/08/15 05:49:48;;;;;;;;;;;30.30;99.90;;;;;;5009525;28;20485;-66
2021/08/15 05:52:14;;;;;;;;;;;30.60;99.90;;;;;;5009853;28;19916;-67
2021/08/15 05:54:39;;;;;;;;;;;31.20;99.90;;;;;;5009704;28;19910;-67
2021/08/15 05:57:05;;;;;;;;;;;31.70;99.90;;;;;;5009694;28;19996;-67
2021/08/15 05:59:30;;;;;;;;;;;32.40;99.90;;;;;;5007091;28;20017;-67
2021/08/15 06:01:56;;;;;;;;;;;33.00;99.90;;;;;;5009168;28;19956;-67
2021/08/15 06:04:21;;;;;;;;;;;33.40;99.90;;;;;;5009885;28;19909;-67
2021/08/15 06:06:47;;;;;;;;;;;33.80;99.90;;;;;;5009192;28;19910;-66
2021/08/15 06:09:13;;;;;;;;;;;34.10;99.90;;;;;;5009072;28;19949;-66
2021/08/15 06:11:38;;;;;;;;;;;34.30;99.90;;;;;;5008882;28;19964;-67
2021/08/15 06:14:04;;;;;;;;;;;34.50;99.90;;;;;;5008448;28;19984;-67
2021/08/15 06:16:29;;;;;;;;;;;34.90;99.90;;;;;;5009628;28;19909;-67
2021/08/15 06:18:55;;;;;;;;;;;35.40;99.90;;;;;;5008533;28;19910;-67
2021/08/15 06:21:20;;;;;;;;;;;35.70;99.90;;;;;;5008738;28;19917;-67
2021/08/15 06:23:47;;;;;;;;;;;36.20;99.90;;;;;;5008861;28;19910;-67
2021/08/15 06:26:13;;;;;;;;;;;36.50;99.90;;;;;;5008805;28;19918;-67
2021/08/15 06:28:38;;;;;;;;;;;37.00;99.90;;;;;;5008099;28;19909;-67
2021/08/15 06:31:04;;;;;;;;;;;37.60;99.90;;;;;;5034447;22;19912;-66
2021/08/15 06:33:29;;;;;;;;;;;38.00;99.90;;;;;;5028743;28;19917;-66
2021/08/15 06:35:54;;;;;;;;;;;38.40;99.90;;;;;;5028468;28;19909;-66
2021/08/15 06:38:20;;;;;;;;;;;38.40;99.90;;;;;;5027483;28;19909;-66
2021/08/15 06:40:45;;;;;;;;;;;38.80;99.90;;;;;;5028097;28;19920;-66
2021/08/15 06:43:11;;;;;;;;;;;39.20;99.90;;;;;;5028075;28;20271;-66
2021/08/15 06:45:37;;;;;;;;;;;39.80;99.90;;;;;;5028669;28;19915;-67
2021/08/15 06:48:03;;;;;;;;;;;40.20;99.90;;;;;;5027851;28;19916;-67
2021/08/15 06:50:29;;;;;;;;;;;40.50;99.90;;;;;;5028246;28;19939;-67
2021/08/15 06:52:54;;;;;;;;;;;40.90;99.90;;;;;;5027957;28;20282;-67
2021/08/15 06:55:20;;;;;;;;;;;40.90;99.90;;;;;;5028574;28;20388;-66
2021/08/15 06:57:46;;;;;;;;;;;41.30;99.90;;;;;;5027789;28;19909;-66
2021/08/15 07:00:12;;;;;;;;;;;41.40;99.90;;;;;;5027184;28;19913;-66
2021/08/15 07:02:38;;;;;;;;;;;41.90;99.90;;;;;;5028471;28;20301;-66
2021/08/15 07:05:07;;;;;;;;;;;42.10;99.90;;;;;;5027750;28;20290;-67
2021/08/15 07:07:33;;;;;;;;;;;42.70;99.90;;;;;;5027511;28;20370;-66
2021/08/15 07:09:58;;;;;;;;;;;43.40;99.90;;;;;;5027930;28;19916;-66
2021/08/15 07:12:24;;;;;;;;;;;43.50;99.90;;;;;;5027941;28;19916;-67
2021/08/15 07:14:49;;;;;;;;;;;43.70;99.40;;;;;;5027801;28;19920;-66
2021/08/15 07:17:15;;;;;;;;;;;43.70;95.80;;;;;;5027879;28;20011;-66
2021/08/15 07:19:40;;;;;;;;;;;43.70;92.80;;;;;;5027433;28;19914;-67
2021/08/15 07:22:06;;;;;;;;;;;43.60;90.40;;;;;;5027722;28;20324;-67
2021/08/15 07:24:32;;;;;;;;;;;44.50;87.00;;;;;;5028016;28;19909;-67
2021/08/15 07:26:57;;;;;;;;;;;45.00;82.40;;;;;;5028600;28;19913;-67
2021/08/15 07:29:23;;;;;;;;;;;45.40;75.30;;;;;;5027570;28;19975;-67
2021/08/15 07:31:49;;;;;;;;;;;45.20;68.60;;;;;;5030139;28;19928;-67
2021/08/15 07:34:14;;;;;;;;;;;44.70;62.90;;;;;;5030552;28;20318;-67
2021/08/15 07:36:40;;;;;;;;;;;45.20;58.80;;;;;;5029336;28;19920;-67
2021/08/15 07:39:05;;;;;;;;;;;45.50;56.70;;;;;;5027390;28;20389;-68
2021/08/15 07:41:31;;;;;;;;;;;44.90;51.60;;;;;;5031006;28;19914;-67
2021/08/15 07:43:56;;;;;;;;;;;43.90;47.70;;;;;;5032882;28;19913;-68
2021/08/15 07:46:22;;;;;;;;;;;43.20;46.50;;;;;;5033901;28;20303;-67
2021/08/15 07:48:47;;;;;;;;;;;43.60;45.70;;;;;;5033139;28;19996;-67
2021/08/15 07:51:13;;;;;;;;;;;43.80;44.80;;;;;;5034091;28;19913;-67
2021/08/15 07:53:38;;;;;;;;;;;44.70;44.70;;;;;;5033994;28;19913;-67
2021/08/15 07:56:04;;;;;;;;;;;45.80;44.30;;;;;;5033909;28;19909;-67
2021/08/15 07:58:29;;;;;;;;;;;46.70;42.40;;;;;;5032440;28;19909;-67
2021/08/15 08:00:56;;;;;;;;;;;44.20;34.90;;;;;;5034240;28;19921;-66
2021/08/15 08:03:21;;;;;;;;;;;44.40;35.70;;;;;;5033596;28;19921;-67
2021/08/15 08:05:47;;;;;;;;;;;45.60;36.80;;;;;;5033715;28;20336;-66
2021/08/15 08:08:13;;;;;;;;;;;45.00;33.60;;;;;;5032848;28;19910;-67
2021/08/15 08:10:39;;;;;;;;;;;44.90;32.90;;;;;;5033821;28;19960;-67
2021/08/15 08:13:08;;;;;;;;;;;45.20;33.80;;;;;;5033013;28;20247;-67
2021/08/15 08:15:33;;;;;;;;;;;43.00;29.90;;;;;;5033986;28;19913;-67
2021/08/15 08:17:59;;;;;;;;;;;44.20;31.70;;;;;;5033486;28;20072;-67
2021/08/15 08:20:26;;;;;;;;;;;45.10;33.10;;;;;;5032042;28;19909;-68
2021/08/15 08:22:51;;;;;;;;;;;46.50;34.40;;;;;;5033528;28;20282;-67
2021/08/15 08:25:17;;;;;;;;;;;47.60;33.90;;;;;;5033468;28;19913;-68
2021/08/15 08:27:43;;;;;;;;;;;48.00;32.10;;;;;;5031214;28;19909;-67
2021/08/15 08:30:09;;;;;;;;;;;46.30;27.60;;;;;;5033305;28;19995;-68
2021/08/15 08:32:34;;;;;;;;;;;46.90;28.10;;;;;;5032986;28;20317;-67
2021/08/15 08:35:00;;;;;;;;;;;47.60;27.80;;;;;;5032801;28;19909;-68
2021/08/15 08:37:25;;;;;;;;;;;47.20;26.50;;;;;;5032690;28;19958;-68
2021/08/15 08:39:52;;;;;;;;;;;47.30;25.00;;;;;;5032799;28;20285;-67
2021/08/15 08:42:17;;;;;;;;;;;45.70;21.90;;;;;;5033060;28;20051;-67
2021/08/15 08:44:43;;;;;;;;;;;44.10;20.60;;;;;;5032515;28;19909;-68
2021/08/15 08:47:09;;;;;;;;;;;43.30;21.00;;;;;;5032653;28;19909;-67
2021/08/15 08:49:37;;;;;;;;;;;41.80;20.00;;;;;;5032462;28;19963;-67
2021/08/15 08:52:03;;;;;;;;;;;42.20;22.50;;;;;;5032234;28;20285;-67
2021/08/15 08:54:29;;;;;;;;;;;42.40;21.80;;;;;;5032988;28;20023;-67
2021/08/15 08:56:55;;;;;;;;;;;43.20;22.90;;;;;;5032489;28;20007;-67
2021/08/15 08:59:21;;;;;;;;;;;41.90;31.70;;;;;;5031260;28;19913;-67
2021/08/15 09:01:46;;;;;;;;;;;41.10;22.10;;;;;;5032396;28;19913;-67
2021/08/15 09:04:12;;;;;;;;;;;41.20;24.20;;;;;;5032400;28;19952;-67
2021/08/15 09:06:39;;;;;;;;;;;41.10;24.40;;;;;;5032707;28;19909;-67
2021/08/15 09:09:09;;;;;;;;;;;40.40;25.20;;;;;;5031337;28;20000;-67
2021/08/15 09:11:34;;;;;;;;;;;40.60;26.10;;;;;;5032260;28;19916;-67
2021/08/15 09:14:07;;;;;;;;;;;40.50;27.10;;;;;;5031709;28;19995;-67
2021/08/15 09:16:51;;;;;;;;;;;41.10;29.20;;;;;;5032126;28;20365;-67
2021/08/15 09:19:23;;;;;;;;;;;40.90;29.90;;;;;;5031199;28;19913;-68
2021/08/15 09:21:48;;;;;;;;;;;42.00;33.00;;;;;;5032272;28;19919;-68
2021/08/15 09:24:14;;;;;;;;;;;42.30;33.80;;;;;;5031961;28;19909;-68
2021/08/15 09:26:53;;;;;;;;;;;41.00;32.10;;;;;;5032175;28;19909;-67
2021/08/15 09:29:18;;;;;;;;;;;42.70;35.50;;;;;;5030859;28;20377;-67
2021/08/15 09:31:45;;;;;;;;;;;42.90;34.30;;;;;;5032041;28;19972;-67
2021/08/15 09:34:22;;;;;;;;;;;41.40;32.40;;;;;;5032100;28;20366;-67
2021/08/15 09:36:48;;;;;;;;;;;41.70;34.10;;;;;;5031868;28;19913;-67
2021/08/15 09:39:13;;;;;;;;;;;41.20;33.00;;;;;;5030783;28;19955;-67
2021/08/15 09:41:40;;;;;;;;;;;42.00;35.00;;;;;;5031736;28;20003;-67
2021/08/15 09:44:38;;;;;;;;;;;43.20;36.30;;;;;;5031649;28;19934;-67
2021/08/15 09:47:08;;;;;;;;;;;42.30;33.90;;;;;;5008867;28;19909;-67
2021/08/15 09:49:36;;;;;;;;;;;41.90;34.00;;;;;;5030786;28;19909;-67
2021/08/15 09:52:02;;;;;;;;;;;41.60;33.50;;;;;;5031824;28;19999;-68
2021/08/15 09:54:28;;;;;;;;;;;41.90;34.50;;;;;;5031551;28;20280;-67
2021/08/15 09:56:56;;;;;;;;;;;42.70;35.30;;;;;;5031600;28;19913;-67
2021/08/15 09:59:23;;;;;;;;;;;42.20;34.10;;;;;;5030311;28;19909;-68
2021/08/15 10:01:49;;;;;;;;;;;42.20;33.90;;;;;;5031331;28;19913;-67
2021/08/15 10:04:15;;;;;;;;;;;40.30;31.50;;;;;;5030344;28;19979;-67
2021/08/15 10:06:42;;;;;;;;;;;39.30;33.10;;;;;;5031487;28;19920;-68
2021/08/15 10:09:08;;;;;;;;;;;38.20;32.60;;;;;;5031036;28;19913;-67
2021/08/15 10:11:34;;;;;;;;;;;38.60;35.20;;;;;;5031766;28;19916;-67
2021/08/15 10:14:00;;;;;;;;;;;39.60;38.40;;;;;;5030898;28;19962;-67
2021/08/15 10:16:36;;;;;;;;;;;41.10;40.10;;;;;;5031292;28;19913;-67
2021/08/15 10:19:06;;;;;;;;;;;42.30;40.50;;;;;;5030497;28;19921;-68
2021/08/15 10:21:37;;;;;;;;;;;43.30;40.80;;;;;;5030799;28;20095;-67
2021/08/15 10:24:07;;;;;;;;;;;43.30;38.90;;;;;;5031201;28;19910;-68
2021/08/15 10:26:35;;;;;;;;;;;43.80;38.00;;;;;;5031923;28;19943;-68
2021/08/15 10:29:01;;;;;;;;;;;44.30;48.60;;;;;;5030802;28;19948;-67
2021/08/15 10:31:46;;;;;;;;;;;44.10;33.60;;;;;;5030866;28;19964;-67
2021/08/15 10:34:11;;;;;;;;;;;42.90;30.60;;;;;;5031315;28;19971;-68
2021/08/15 10:36:37;;;;;;;;;;;42.20;29.30;;;;;;5031380;28;19976;-68
2021/08/15 10:39:22;;;;;;;;;;;42.50;30.50;;;;;;5030360;28;19913;-68
2021/08/15 10:41:48;;;;;;;;;;;41.60;41.80;;;;;;5030338;28;20368;-68
2021/08/15 10:44:17;;;;;;;;;;;42.50;31.10;;;;;;5030416;28;19910;-66
2021/08/15 10:47:01;;;;;;;;;;;42.90;31.50;;;;;;5030767;28;19913;-66
2021/08/15 10:49:45;;;;;;;;;;;42.10;30.80;;;;;;5029938;28;19913;-67
2021/08/15 10:52:31;;;;;;;;;;;42.20;33.90;;;;;;5030803;28;19916;-66
2021/08/15 10:55:00;;;;;;;;;;;41.80;32.70;;;;;;5031059;28;19909;-66
2021/08/15 10:57:34;;;;;;;;;;;42.10;33.50;;;;;;5030646;28;20317;-66
2021/08/15 11:00:00;;;;;;;;;;;42.60;34.10;;;;;;5030682;28;19909;-66
2021/08/15 11:02:31;;;;;;;;;;;41.60;32.90;;;;;;5031234;28;19914;-66
2021/08/15 11:05:00;;;;;;;;;;;41.00;34.30;;;;;;5031030;28;19913;-66
2021/08/15 11:07:36;;;;;;;;;;;40.50;34.70;;;;;;5030357;28;19948;-66
2021/08/15 11:10:02;;;;;;;;;;;40.80;36.50;;;;;;5030463;28;19909;-67
2021/08/15 11:12:28;;;;;;;;;;;41.10;36.90;;;;;;5030821;28;19937;-67
2021/08/15 11:14:53;;;;;;;;;;;41.10;37.40;;;;;;5030709;28;19967;-66
2021/08/15 11:17:19;;;;;;;;;;;41.10;37.00;;;;;;5034228;28;19909;-66
2021/08/15 11:19:45;;;;;;;;;;;41.20;37.70;;;;;;5034474;28;19995;-66
2021/08/15 11:22:11;;;;;;;;;;;41.00;38.30;;;;;;5034503;28;19917;-67
2021/08/15 11:24:46;;;;;;;;;;;40.70;39.50;;;;;;5033588;28;19920;-66
2021/08/15 11:27:14;;;;;;;;;;;40.20;39.60;;;;;;5034659;28;19992;-68
2021/08/15 11:29:40;;;;;;;;;;;38.40;38.50;;;;;;5034552;28;19916;-67
2021/08/15 11:32:20;;;;;;;;;;;38.80;42.30;;;;;;5034150;28;20013;-67
2021/08/15 11:34:53;;;;;;;;;;;39.70;44.80;;;;;;5034554;28;20335;-67
2021/08/15 11:37:20;;;;;;;;;;;40.70;47.60;;;;;;5034075;28;20136;-68
2021/08/15 11:39:47;;;;;;;;;;;38.70;45.30;;;;;;5034500;28;19949;-68
2021/08/15 11:42:16;;;;;;;;;;;39.50;48.00;;;;;;5033751;28;20443;-68
2021/08/15 11:44:52;;;;;;;;;;;39.60;50.00;;;;;;5032707;28;19931;-67
2021/08/15 11:47:30;;;;;;;;;;;39.40;50.20;;;;;;5033839;28;19909;-68
2021/08/15 11:49:56;;;;;;;;;;;39.90;51.60;;;;;;5034337;28;19909;-68
2021/08/15 11:52:23;;;;;;;;;;;39.70;52.00;;;;;;5033715;28;20281;-68
2021/08/15 11:54:50;;;;;;;;;;;38.90;51.60;;;;;;5033869;28;19932;-67
2021/08/15 11:57:16;;;;;;;;;;;38.20;68.70;;;;;;5033807;28;19909;-67
2021/08/15 11:59:42;;;;;;;;;;;37.20;53.70;;;;;;5033798;28;19932;-67
2021/08/15 12:02:15;;;;;;;;;;;35.40;55.90;;;;;;5033602;28;20297;-67
2021/08/15 12:04:42;;;;;;;;;;;35.20;60.20;;;;;;5033540;28;19910;-67
2021/08/15 12:07:07;;;;;;;;;;;35.70;65.80;;;;;;5033388;28;20234;-66
2021/08/15 12:09:33;;;;;;;;;;;36.00;68.90;;;;;;5033131;28;19909;-66
2021/08/15 12:11:59;;;;;;;;;;;35.60;70.90;;;;;;5033922;28;19909;-68
2021/08/15 12:14:51;;;;;;;;;;;35.70;91.90;;;;;;5033337;28;20336;-67
2021/08/15 12:17:18;;;;;;;;;;;35.20;77.00;;;;;;5031090;28;19913;-67
2021/08/15 12:19:43;;;;;;;;;;;34.90;80.90;;;;;;5034095;28;19917;-67
2021/08/15 12:22:16;;;;;;;;;;;33.80;83.80;;;;;;5033920;28;19917;-67
2021/08/15 12:24:43;;;;;;;;;;;33.60;89.50;;;;;;5032274;28;19971;-67
2021/08/15 12:27:10;;;;;;;;;;;34.00;91.20;;;;;;5032584;28;19940;-67
2021/08/15 12:29:39;;;;;;;;;;;33.90;92.40;;;;;;5032738;28;19983;-68
2021/08/15 12:32:17;;;;;;;;;;;33.70;94.50;;;;;;5033882;28;19924;-68
2021/08/15 12:34:44;;;;;;;;;;;33.40;96.20;;;;;;5033136;28;19913;-68
2021/08/15 12:37:15;;;;;;;;;;;33.30;97.80;;;;;;5033153;28;19909;-65
2021/08/15 12:39:44;;;;;;;;;;;33.50;99.20;;;;;;5033136;28;19986;-66
2021/08/15 12:42:14;;;;;;;;;;;33.30;99.90;;;;;;5033146;28;20012;-66
2021/08/15 12:44:51;;;;;;;;;;;33.00;99.90;;;;;;5032510;28;19987;-66
2021/08/15 12:47:24;;;;;;;;;;;32.40;99.90;;;;;;5032871;28;19917;-66
2021/08/15 12:49:50;;;;;;;;;;;31.80;99.90;;;;;;5033143;28;19909;-66
2021/08/15 12:52:21;;;;;;;;;;;31.30;99.90;;;;;;5032904;28;19913;-66
2021/08/15 12:55:19;;;;;;;;;;;31.00;99.90;;;;;;5032384;28;19914;-66
2021/08/15 12:57:46;;;;;;;;;;;31.20;99.90;;;;;;5009313;28;19909;-66
2021/08/15 13:00:16;;;;;;;;;;;31.30;99.90;;;;;;5032263;28;20378;-66
2021/08/15 13:02:42;;;;;;;;;;;31.40;99.90;;;;;;5032026;28;19913;-66
2021/08/15 13:05:08;;;;;;;;;;;31.10;99.90;;;;;;5032673;28;19910;-66
2021/08/15 13:07:33;;;;;;;;;;;31.00;99.90;;;;;;5031272;28;19909;-65
2021/08/15 13:09:59;;;;;;;;;;;30.80;99.90;;;;;;5032386;28;20357;-69
2021/08/15 13:12:24;;;;;;;;;;;30.80;99.90;;;;;;5032200;28;20099;-66
2021/08/15 13:14:50;;;;;;;;;;;30.80;99.90;;;;;;5031409;28;20336;-66
2021/08/15 13:17:16;;;;;;;;;;;30.60;99.90;;;;;;5032121;28;19923;-65
2021/08/15 13:19:42;;;;;;;;;;;30.30;99.90;;;;;;5031940;28;19935;-66
2021/08/15 13:22:08;;;;;;;;;;;30.00;99.90;;;;;;5032019;28;20024;-66
2021/08/15 13:24:34;;;;;;;;;;;29.50;99.90;;;;;;5032014;28;19913;-65
2021/08/15 13:27:03;;;;;;;;;;;28.70;99.90;;;;;;5031874;28;19916;-66
2021/08/15 13:29:29;;;;;;;;;;;27.80;99.90;;;;;;5030602;28;19909;-68
2021/08/15 13:31:55;;;;;;;;;;;27.10;99.90;;;;;;5031756;28;19917;-66
2021/08/15 13:34:20;;;;;;;;;;;26.60;99.90;;;;;;5031685;28;19960;-67
2021/08/15 13:36:46;;;;;;;;;;;26.30;99.90;;;;;;5031648;28;19913;-66
2021/08/15 13:39:11;;;;;;;;;;;26.00;99.90;;;;;;5031064;28;19949;-67
2021/08/15 13:41:37;;;;;;;;;;;25.80;99.90;;;;;;5031613;28;19944;-67
2021/08/15 13:44:02;;;;;;;;;;;25.70;99.90;;;;;;5031053;28;19955;-67
2021/08/15 13:46:30;;;;;;;;;;;25.30;99.90;;;;;;5031284;28;20208;-67
2021/08/15 13:48:56;;;;;;;;;;;25.10;99.90;;;;;;5030537;28;20282;-66
2021/08/15 13:51:21;;;;;;;;;;;24.70;99.90;;;;;;5031517;28;19909;-67
2021/08/15 13:53:47;;;;;;;;;;;24.50;99.90;;;;;;5031951;28;19913;-67
2021/08/15 13:56:12;;;;;;;;;;;24.30;99.90;;;;;;5031983;28;20343;-66
2021/08/15 13:58:38;;;;;;;;;;;23.90;99.90;;;;;;5030587;28;19941;-66
2021/08/15 14:01:03;;;;;;;;;;;23.80;99.90;;;;;;5031367;28;20034;-67
2021/08/15 14:03:29;;;;;;;;;;;23.70;99.90;;;;;;5031415;28;19909;-67
2021/08/15 14:05:54;;;;;;;;;;;23.70;99.90;;;;;;5031323;28;19913;-66
2021/08/15 14:08:20;;;;;;;;;;;23.60;99.90;;;;;;5030793;28;19909;-66
2021/08/15 14:10:46;;;;;;;;;;;23.60;99.90;;;;;;5031582;28;19909;-66
2021/08/15 14:13:12;;;;;;;;;;;23.80;99.90;;;;;;5030441;28;20424;-66
2021/08/15 14:15:40;;;;;;;;;;;24.00;1.00;;;;;;5031226;28;19924;-67
2021/08/15 14:18:07;;;;;;;;;;;24.20;1.00;;;;;;5030620;28;19909;-67
2021/08/15 14:20:34;;;;;;;;;;;24.40;1.00;;;;;;5031645;28;19913;-67